sensor_id;sensor_type;location;lat;lon;timestamp;P1;durP1;ratioP1;P2;durP2;ratioP2
7969;SDS011;4030;52.362;9.206;2023-05-02T00:00:32;2.03;;;1.60;;
7969;SDS011;4030;52.362;9.206;2023-05-02T00:02:59;3.33;;;1.77;;
7969;SDS011;4030;52.362;9.206;2023-05-02T00:05:25;3.25;;;1.73;;
7969;SDS011;4030;52.362;9.206;2023-05-02T00:07:51;3.00;;;1.83;;
7969;SDS011;4030;52.362;9.206;2023-05-02T00:10:17;2.35;;;1.55;;
7969;SDS011;4030;52.362;9.206;2023-05-02T00:12:43;2.33;;;1.70;;
7969;SDS011;4030;52.362;9.206;2023-05-02T00:15:09;3.08;;;1.80;;
7969;SDS011;4030;52.362;9.206;2023-05-02T00:17:35;3.25;;;1.70;;
7969;SDS011;4030;52.362;9.206;2023-05-02T00:20:01;2.67;;;1.80;;
7969;SDS011;4030;52.362;9.206;2023-05-02T00:22:30;3.50;;;1.80;;
7969;SDS011;4030;52.362;9.206;2023-05-02T00:24:56;2.35;;;1.65;;
7969;SDS011;4030;52.362;9.206;2023-05-02T00:27:23;2.72;;;1.70;;
7969;SDS011;4030;52.362;9.206;2023-05-02T00:29:49;2.95;;;1.70;;
7969;SDS011;4030;52.362;9.206;2023-05-02T00:32:16;3.13;;;1.80;;
7969;SDS011;4030;52.362;9.206;2023-05-02T00:34:42;2.40;;;1.70;;
7969;SDS011;4030;52.362;9.206;2023-05-02T00:37:08;3.78;;;1.77;;
7969;SDS011;4030;52.362;9.206;2023-05-02T00:39:34;1.73;;;1.50;;
7969;SDS011;4030;52.362;9.206;2023-05-02T00:42:00;3.55;;;1.90;;
7969;SDS011;4030;52.362;9.206;2023-05-02T00:44:27;2.90;;;2.10;;
7969;SDS011;4030;52.362;9.206;2023-05-02T00:46:53;2.67;;;1.50;;
7969;SDS011;4030;52.362;9.206;2023-05-02T00:49:20;2.53;;;2.00;;
7969;SDS011;4030;52.362;9.206;2023-05-02T00:51:45;2.78;;;1.70;;
7969;SDS011;4030;52.362;9.206;2023-05-02T00:54:12;2.28;;;1.75;;
7969;SDS011;4030;52.362;9.206;2023-05-02T00:56:38;2.35;;;1.58;;
7969;SDS011;4030;52.362;9.206;2023-05-02T00:59:04;2.80;;;1.80;;
7969;SDS011;4030;52.362;9.206;2023-05-02T01:01:39;2.83;;;1.77;;
7969;SDS011;4030;52.362;9.206;2023-05-02T01:07:08;2.67;;;2.17;;
7969;SDS011;4030;52.362;9.206;2023-05-02T01:12:48;2.75;;;2.20;;
7969;SDS011;4030;52.362;9.206;2023-05-02T01:15:29;2.88;;;2.13;;
7969;SDS011;4030;52.362;9.206;2023-05-02T01:17:57;3.08;;;2.50;;
7969;SDS011;4030;52.362;9.206;2023-05-02T01:20:25;3.50;;;2.40;;
7969;SDS011;4030;52.362;9.206;2023-05-02T01:22:53;3.33;;;2.63;;
7969;SDS011;4030;52.362;9.206;2023-05-02T01:26:06;2.70;;;2.42;;
7969;SDS011;4030;52.362;9.206;2023-05-02T01:29:02;3.88;;;2.80;;
7969;SDS011;4030;52.362;9.206;2023-05-02T01:31:32;4.57;;;3.22;;
7969;SDS011;4030;52.362;9.206;2023-05-02T01:34:16;3.78;;;3.00;;
7969;SDS011;4030;52.362;9.206;2023-05-02T01:36:44;3.47;;;2.72;;
7969;SDS011;4030;52.362;9.206;2023-05-02T01:39:13;3.80;;;3.05;;
7969;SDS011;4030;52.362;9.206;2023-05-02T01:41:45;4.22;;;3.20;;
7969;SDS011;4030;52.362;9.206;2023-05-02T01:44:16;3.92;;;2.97;;
7969;SDS011;4030;52.362;9.206;2023-05-02T01:46:45;4.10;;;3.00;;
7969;SDS011;4030;52.362;9.206;2023-05-02T01:49:12;4.50;;;3.20;;
7969;SDS011;4030;52.362;9.206;2023-05-02T01:51:43;3.75;;;3.05;;
7969;SDS011;4030;52.362;9.206;2023-05-02T01:54:12;3.55;;;3.25;;
7969;SDS011;4030;52.362;9.206;2023-05-02T01:56:41;3.60;;;3.30;;
7969;SDS011;4030;52.362;9.206;2023-05-02T01:59:08;4.43;;;3.58;;
7969;SDS011;4030;52.362;9.206;2023-05-02T02:01:37;3.65;;;3.20;;
7969;SDS011;4030;52.362;9.206;2023-05-02T02:04:05;3.90;;;3.47;;
7969;SDS011;4030;52.362;9.206;2023-05-02T02:06:33;3.95;;;3.53;;
7969;SDS011;4030;52.362;9.206;2023-05-02T02:08:59;4.10;;;3.60;;
7969;SDS011;4030;52.362;9.206;2023-05-02T02:11:28;3.85;;;3.40;;
7969;SDS011;4030;52.362;9.206;2023-05-02T02:14:29;3.97;;;3.58;;
7969;SDS011;4030;52.362;9.206;2023-05-02T02:17:01;4.35;;;3.83;;
7969;SDS011;4030;52.362;9.206;2023-05-02T02:19:36;3.78;;;3.33;;
7969;SDS011;4030;52.362;9.206;2023-05-02T02:22:05;4.10;;;3.38;;
7969;SDS011;4030;52.362;9.206;2023-05-02T02:24:33;3.92;;;3.28;;
7969;SDS011;4030;52.362;9.206;2023-05-02T02:27:01;4.18;;;3.63;;
7969;SDS011;4030;52.362;9.206;2023-05-02T02:29:27;3.70;;;3.40;;
7969;SDS011;4030;52.362;9.206;2023-05-02T02:31:53;4.30;;;3.60;;
7969;SDS011;4030;52.362;9.206;2023-05-02T02:34:19;3.50;;;3.00;;
7969;SDS011;4030;52.362;9.206;2023-05-02T02:36:56;4.10;;;3.65;;
7969;SDS011;4030;52.362;9.206;2023-05-02T02:39:34;4.18;;;3.78;;
7969;SDS011;4030;52.362;9.206;2023-05-02T02:42:42;3.92;;;3.25;;
7969;SDS011;4030;52.362;9.206;2023-05-02T02:54:17;4.65;;;3.35;;
7969;SDS011;4030;52.362;9.206;2023-05-02T03:00:20;4.35;;;3.95;;
7969;SDS011;4030;52.362;9.206;2023-05-02T03:02:50;3.97;;;3.58;;
7969;SDS011;4030;52.362;9.206;2023-05-02T03:05:17;4.15;;;3.50;;
7969;SDS011;4030;52.362;9.206;2023-05-02T03:07:45;4.25;;;3.55;;
7969;SDS011;4030;52.362;9.206;2023-05-02T03:10:11;4.25;;;3.17;;
7969;SDS011;4030;52.362;9.206;2023-05-02T03:12:37;3.85;;;3.45;;
7969;SDS011;4030;52.362;9.206;2023-05-02T03:15:21;4.28;;;3.88;;
7969;SDS011;4030;52.362;9.206;2023-05-02T03:18:12;4.22;;;3.63;;
7969;SDS011;4030;52.362;9.206;2023-05-02T03:20:37;4.85;;;3.88;;
7969;SDS011;4030;52.362;9.206;2023-05-02T03:23:03;4.13;;;3.78;;
7969;SDS011;4030;52.362;9.206;2023-05-02T03:25:29;4.68;;;3.92;;
7969;SDS011;4030;52.362;9.206;2023-05-02T03:27:56;4.32;;;3.78;;
7969;SDS011;4030;52.362;9.206;2023-05-02T03:30:22;5.65;;;4.00;;
7969;SDS011;4030;52.362;9.206;2023-05-02T03:32:48;5.10;;;3.95;;
7969;SDS011;4030;52.362;9.206;2023-05-02T03:35:13;4.50;;;3.95;;
7969;SDS011;4030;52.362;9.206;2023-05-02T03:37:40;4.18;;;3.78;;
7969;SDS011;4030;52.362;9.206;2023-05-02T03:40:06;4.30;;;3.90;;
7969;SDS011;4030;52.362;9.206;2023-05-02T03:42:35;4.78;;;3.70;;
7969;SDS011;4030;52.362;9.206;2023-05-02T03:45:05;4.20;;;3.80;;
7969;SDS011;4030;52.362;9.206;2023-05-02T03:47:32;4.63;;;4.15;;
7969;SDS011;4030;52.362;9.206;2023-05-02T03:49:58;4.47;;;3.90;;
7969;SDS011;4030;52.362;9.206;2023-05-02T03:52:24;4.45;;;3.67;;
7969;SDS011;4030;52.362;9.206;2023-05-02T03:54:50;4.72;;;3.95;;
7969;SDS011;4030;52.362;9.206;2023-05-02T03:57:17;4.75;;;4.28;;
7969;SDS011;4030;52.362;9.206;2023-05-02T03:59:42;4.70;;;4.00;;
7969;SDS011;4030;52.362;9.206;2023-05-02T04:02:11;5.05;;;4.35;;
7969;SDS011;4030;52.362;9.206;2023-05-02T04:04:37;4.85;;;4.18;;
7969;SDS011;4030;52.362;9.206;2023-05-02T04:07:04;4.47;;;4.07;;
7969;SDS011;4030;52.362;9.206;2023-05-02T04:09:31;5.40;;;4.10;;
7969;SDS011;4030;52.362;9.206;2023-05-02T04:11:58;4.85;;;4.13;;
7969;SDS011;4030;52.362;9.206;2023-05-02T04:14:24;4.75;;;4.28;;
7969;SDS011;4030;52.362;9.206;2023-05-02T04:16:50;4.32;;;3.92;;
7969;SDS011;4030;52.362;9.206;2023-05-02T04:19:17;4.78;;;4.28;;
7969;SDS011;4030;52.362;9.206;2023-05-02T04:21:43;4.75;;;4.30;;
7969;SDS011;4030;52.362;9.206;2023-05-02T04:24:09;4.32;;;3.92;;
7969;SDS011;4030;52.362;9.206;2023-05-02T04:26:35;4.82;;;4.07;;
7969;SDS011;4030;52.362;9.206;2023-05-02T04:29:01;4.57;;;4.03;;
7969;SDS011;4030;52.362;9.206;2023-05-02T04:31:28;4.53;;;4.13;;
7969;SDS011;4030;52.362;9.206;2023-05-02T04:33:55;5.63;;;4.03;;
7969;SDS011;4030;52.362;9.206;2023-05-02T04:36:22;4.30;;;3.88;;
7969;SDS011;4030;52.362;9.206;2023-05-02T04:38:49;4.03;;;3.60;;
7969;SDS011;4030;52.362;9.206;2023-05-02T04:41:14;3.53;;;3.22;;
7969;SDS011;4030;52.362;9.206;2023-05-02T04:43:41;3.78;;;3.47;;
7969;SDS011;4030;52.362;9.206;2023-05-02T04:46:07;3.88;;;3.58;;
7969;SDS011;4030;52.362;9.206;2023-05-02T04:48:32;4.00;;;3.22;;
7969;SDS011;4030;52.362;9.206;2023-05-02T04:50:58;4.47;;;3.17;;
7969;SDS011;4030;52.362;9.206;2023-05-02T04:53:24;3.60;;;3.30;;
7969;SDS011;4030;52.362;9.206;2023-05-02T04:55:50;3.45;;;2.92;;
7969;SDS011;4030;52.362;9.206;2023-05-02T04:58:16;3.80;;;3.15;;
7969;SDS011;4030;52.362;9.206;2023-05-02T05:00:42;3.35;;;3.05;;
7969;SDS011;4030;52.362;9.206;2023-05-02T05:03:08;3.10;;;2.80;;
7969;SDS011;4030;52.362;9.206;2023-05-02T05:05:34;3.08;;;2.70;;
7969;SDS011;4030;52.362;9.206;2023-05-02T05:08:00;2.60;;;2.40;;
7969;SDS011;4030;52.362;9.206;2023-05-02T05:10:26;3.08;;;2.50;;
7969;SDS011;4030;52.362;9.206;2023-05-02T05:12:52;3.30;;;2.42;;
7969;SDS011;4030;52.362;9.206;2023-05-02T05:15:18;2.83;;;2.47;;
7969;SDS011;4030;52.362;9.206;2023-05-02T05:17:46;2.60;;;2.25;;
7969;SDS011;4030;52.362;9.206;2023-05-02T05:20:12;2.20;;;1.95;;
7969;SDS011;4030;52.362;9.206;2023-05-02T05:22:39;2.83;;;2.40;;
7969;SDS011;4030;52.362;9.206;2023-05-02T05:25:05;2.70;;;2.03;;
7969;SDS011;4030;52.362;9.206;2023-05-02T05:27:32;3.05;;;2.05;;
7969;SDS011;4030;52.362;9.206;2023-05-02T05:29:59;3.85;;;2.13;;
7969;SDS011;4030;52.362;9.206;2023-05-02T05:32:25;4.75;;;2.22;;
7969;SDS011;4030;52.362;9.206;2023-05-02T05:34:51;2.97;;;2.40;;
7969;SDS011;4030;52.362;9.206;2023-05-02T05:37:20;2.97;;;1.92;;
7969;SDS011;4030;52.362;9.206;2023-05-02T05:39:46;3.22;;;2.35;;
7969;SDS011;4030;52.362;9.206;2023-05-02T05:42:12;2.88;;;2.17;;
7969;SDS011;4030;52.362;9.206;2023-05-02T05:44:38;4.32;;;2.50;;
7969;SDS011;4030;52.362;9.206;2023-05-02T05:47:04;3.83;;;2.13;;
7969;SDS011;4030;52.362;9.206;2023-05-02T05:49:29;3.95;;;2.38;;
7969;SDS011;4030;52.362;9.206;2023-05-02T05:51:56;3.10;;;2.25;;
7969;SDS011;4030;52.362;9.206;2023-05-02T05:54:22;3.53;;;2.50;;
7969;SDS011;4030;52.362;9.206;2023-05-02T05:56:48;4.28;;;2.40;;
7969;SDS011;4030;52.362;9.206;2023-05-02T05:59:14;4.55;;;2.70;;
7969;SDS011;4030;52.362;9.206;2023-05-02T06:01:40;4.70;;;2.90;;
7969;SDS011;4030;52.362;9.206;2023-05-02T06:04:06;4.53;;;2.55;;
7969;SDS011;4030;52.362;9.206;2023-05-02T06:06:32;3.45;;;2.38;;
7969;SDS011;4030;52.362;9.206;2023-05-02T06:08:58;6.35;;;2.70;;
7969;SDS011;4030;52.362;9.206;2023-05-02T06:11:24;4.28;;;2.58;;
7969;SDS011;4030;52.362;9.206;2023-05-02T06:13:51;4.90;;;2.80;;
7969;SDS011;4030;52.362;9.206;2023-05-02T06:16:17;4.40;;;2.55;;
7969;SDS011;4030;52.362;9.206;2023-05-02T06:18:43;4.75;;;2.60;;
7969;SDS011;4030;52.362;9.206;2023-05-02T06:21:10;5.55;;;2.90;;
7969;SDS011;4030;52.362;9.206;2023-05-02T06:23:35;6.03;;;2.83;;
7969;SDS011;4030;52.362;9.206;2023-05-02T06:26:02;5.78;;;2.80;;
7969;SDS011;4030;52.362;9.206;2023-05-02T06:28:30;7.25;;;2.95;;
7969;SDS011;4030;52.362;9.206;2023-05-02T06:30:56;5.60;;;2.90;;
7969;SDS011;4030;52.362;9.206;2023-05-02T06:33:27;6.97;;;3.13;;
7969;SDS011;4030;52.362;9.206;2023-05-02T06:35:53;6.32;;;2.72;;
7969;SDS011;4030;52.362;9.206;2023-05-02T06:38:19;5.55;;;2.75;;
7969;SDS011;4030;52.362;9.206;2023-05-02T06:40:45;4.70;;;2.55;;
7969;SDS011;4030;52.362;9.206;2023-05-02T06:43:11;6.78;;;2.95;;
7969;SDS011;4030;52.362;9.206;2023-05-02T06:45:38;4.70;;;2.70;;
7969;SDS011;4030;52.362;9.206;2023-05-02T06:48:04;5.18;;;2.67;;
7969;SDS011;4030;52.362;9.206;2023-05-02T06:50:30;7.10;;;2.83;;
7969;SDS011;4030;52.362;9.206;2023-05-02T06:52:57;5.70;;;3.20;;
7969;SDS011;4030;52.362;9.206;2023-05-02T06:55:22;5.15;;;2.80;;
7969;SDS011;4030;52.362;9.206;2023-05-02T06:57:48;6.25;;;2.85;;
7969;SDS011;4030;52.362;9.206;2023-05-02T07:00:15;6.88;;;3.38;;
7969;SDS011;4030;52.362;9.206;2023-05-02T07:02:42;5.38;;;2.95;;
7969;SDS011;4030;52.362;9.206;2023-05-02T07:05:09;4.75;;;3.00;;
7969;SDS011;4030;52.362;9.206;2023-05-02T07:07:35;3.70;;;2.50;;
7969;SDS011;4030;52.362;9.206;2023-05-02T07:10:01;5.82;;;2.70;;
7969;SDS011;4030;52.362;9.206;2023-05-02T07:12:28;6.70;;;2.72;;
7969;SDS011;4030;52.362;9.206;2023-05-02T07:14:54;5.97;;;2.63;;
7969;SDS011;4030;52.362;9.206;2023-05-02T07:17:20;7.18;;;2.85;;
7969;SDS011;4030;52.362;9.206;2023-05-02T07:19:46;5.03;;;2.70;;
7969;SDS011;4030;52.362;9.206;2023-05-02T07:22:12;4.35;;;2.38;;
7969;SDS011;4030;52.362;9.206;2023-05-02T07:24:41;6.18;;;2.65;;
7969;SDS011;4030;52.362;9.206;2023-05-02T07:27:10;5.47;;;2.80;;
7969;SDS011;4030;52.362;9.206;2023-05-02T07:29:37;5.85;;;2.80;;
7969;SDS011;4030;52.362;9.206;2023-05-02T07:32:03;6.15;;;2.92;;
7969;SDS011;4030;52.362;9.206;2023-05-02T07:34:30;6.18;;;2.80;;
7969;SDS011;4030;52.362;9.206;2023-05-02T07:36:56;5.95;;;2.72;;
7969;SDS011;4030;52.362;9.206;2023-05-02T07:39:23;6.50;;;2.83;;
7969;SDS011;4030;52.362;9.206;2023-05-02T07:41:50;7.25;;;2.92;;
7969;SDS011;4030;52.362;9.206;2023-05-02T07:44:17;6.80;;;2.88;;
7969;SDS011;4030;52.362;9.206;2023-05-02T07:46:42;5.90;;;2.67;;
7969;SDS011;4030;52.362;9.206;2023-05-02T07:49:08;5.53;;;2.97;;
7969;SDS011;4030;52.362;9.206;2023-05-02T07:51:34;7.93;;;3.10;;
7969;SDS011;4030;52.362;9.206;2023-05-02T07:53:59;7.95;;;3.00;;
7969;SDS011;4030;52.362;9.206;2023-05-02T07:56:26;6.30;;;2.70;;
7969;SDS011;4030;52.362;9.206;2023-05-02T07:58:51;5.38;;;2.60;;
7969;SDS011;4030;52.362;9.206;2023-05-02T08:01:17;8.27;;;2.83;;
7969;SDS011;4030;52.362;9.206;2023-05-02T08:03:43;10.00;;;3.20;;
7969;SDS011;4030;52.362;9.206;2023-05-02T08:06:09;6.22;;;2.70;;
7969;SDS011;4030;52.362;9.206;2023-05-02T08:08:37;5.50;;;2.50;;
7969;SDS011;4030;52.362;9.206;2023-05-02T08:11:02;7.45;;;2.92;;
7969;SDS011;4030;52.362;9.206;2023-05-02T08:13:28;5.50;;;2.78;;
7969;SDS011;4030;52.362;9.206;2023-05-02T08:15:54;5.15;;;2.42;;
7969;SDS011;4030;52.362;9.206;2023-05-02T08:18:26;8.18;;;2.78;;
7969;SDS011;4030;52.362;9.206;2023-05-02T08:20:53;6.70;;;2.67;;
7969;SDS011;4030;52.362;9.206;2023-05-02T08:23:21;6.28;;;2.30;;
7969;SDS011;4030;52.362;9.206;2023-05-02T08:25:47;3.78;;;2.22;;
7969;SDS011;4030;52.362;9.206;2023-05-02T08:28:12;5.43;;;2.63;;
7969;SDS011;4030;52.362;9.206;2023-05-02T08:30:38;4.65;;;2.20;;
7969;SDS011;4030;52.362;9.206;2023-05-02T08:33:04;5.30;;;2.75;;
7969;SDS011;4030;52.362;9.206;2023-05-02T08:35:30;5.47;;;2.22;;
7969;SDS011;4030;52.362;9.206;2023-05-02T08:37:56;6.72;;;2.40;;
7969;SDS011;4030;52.362;9.206;2023-05-02T08:40:21;4.40;;;2.10;;
7969;SDS011;4030;52.362;9.206;2023-05-02T08:42:47;6.47;;;2.38;;
7969;SDS011;4030;52.362;9.206;2023-05-02T08:45:13;5.18;;;1.95;;
7969;SDS011;4030;52.362;9.206;2023-05-02T08:47:39;6.03;;;2.22;;
7969;SDS011;4030;52.362;9.206;2023-05-02T08:50:06;5.55;;;2.20;;
7969;SDS011;4030;52.362;9.206;2023-05-02T08:52:35;5.50;;;2.17;;
7969;SDS011;4030;52.362;9.206;2023-05-02T08:55:02;6.97;;;2.40;;
7969;SDS011;4030;52.362;9.206;2023-05-02T08:57:29;6.05;;;2.25;;
7969;SDS011;4030;52.362;9.206;2023-05-02T08:59:55;3.25;;;1.80;;
7969;SDS011;4030;52.362;9.206;2023-05-02T09:05:05;4.72;;;2.00;;
7969;SDS011;4030;52.362;9.206;2023-05-02T09:07:43;3.38;;;1.80;;
7969;SDS011;4030;52.362;9.206;2023-05-02T09:10:11;5.45;;;1.98;;
7969;SDS011;4030;52.362;9.206;2023-05-02T09:12:38;7.22;;;2.40;;
7969;SDS011;4030;52.362;9.206;2023-05-02T09:15:14;7.07;;;2.50;;
7969;SDS011;4030;52.362;9.206;2023-05-02T09:17:41;5.32;;;2.28;;
7969;SDS011;4030;52.362;9.206;2023-05-02T09:20:13;6.68;;;2.35;;
7969;SDS011;4030;52.362;9.206;2023-05-02T09:22:47;5.18;;;2.50;;
7969;SDS011;4030;52.362;9.206;2023-05-02T09:25:14;5.70;;;2.60;;
7969;SDS011;4030;52.362;9.206;2023-05-02T09:27:47;5.88;;;2.20;;
7969;SDS011;4030;52.362;9.206;2023-05-02T09:30:18;6.72;;;2.45;;
7969;SDS011;4030;52.362;9.206;2023-05-02T09:32:49;5.55;;;2.45;;
7969;SDS011;4030;52.362;9.206;2023-05-02T09:35:17;5.50;;;2.33;;
7969;SDS011;4030;52.362;9.206;2023-05-02T09:37:56;5.97;;;2.30;;
7969;SDS011;4030;52.362;9.206;2023-05-02T09:40:23;4.53;;;2.15;;
7969;SDS011;4030;52.362;9.206;2023-05-02T09:42:49;6.90;;;2.22;;
7969;SDS011;4030;52.362;9.206;2023-05-02T09:45:23;4.97;;;2.00;;
7969;SDS011;4030;52.362;9.206;2023-05-02T09:47:50;4.13;;;1.80;;
7969;SDS011;4030;52.362;9.206;2023-05-02T09:50:32;4.05;;;2.20;;
7969;SDS011;4030;52.362;9.206;2023-05-02T09:53:00;3.95;;;1.65;;
7969;SDS011;4030;52.362;9.206;2023-05-02T09:55:34;5.05;;;2.10;;
7969;SDS011;4030;52.362;9.206;2023-05-02T09:58:00;6.75;;;2.17;;
7969;SDS011;4030;52.362;9.206;2023-05-02T10:03:07;5.35;;;1.98;;
7969;SDS011;4030;52.362;9.206;2023-05-02T10:05:37;4.13;;;1.98;;
7969;SDS011;4030;52.362;9.206;2023-05-02T10:08:04;3.42;;;1.65;;
7969;SDS011;4030;52.362;9.206;2023-05-02T10:10:32;3.83;;;1.90;;
7969;SDS011;4030;52.362;9.206;2023-05-02T10:13:02;4.28;;;1.80;;
7969;SDS011;4030;52.362;9.206;2023-05-02T10:15:30;3.70;;;1.80;;
7969;SDS011;4030;52.362;9.206;2023-05-02T10:17:57;3.42;;;1.70;;
7969;SDS011;4030;52.362;9.206;2023-05-02T10:20:28;4.15;;;1.50;;
7969;SDS011;4030;52.362;9.206;2023-05-02T10:22:58;3.97;;;2.05;;
7969;SDS011;4030;52.362;9.206;2023-05-02T10:25:25;2.58;;;1.60;;
7969;SDS011;4030;52.362;9.206;2023-05-02T10:27:52;3.28;;;1.55;;
7969;SDS011;4030;52.362;9.206;2023-05-02T10:30:22;3.50;;;1.83;;
7969;SDS011;4030;52.362;9.206;2023-05-02T10:32:50;5.43;;;1.70;;
7969;SDS011;4030;52.362;9.206;2023-05-02T10:35:18;3.33;;;1.80;;
7969;SDS011;4030;52.362;9.206;2023-05-02T10:37:45;3.28;;;1.73;;
7969;SDS011;4030;52.362;9.206;2023-05-02T10:40:13;4.40;;;1.90;;
7969;SDS011;4030;52.362;9.206;2023-05-02T10:42:39;3.15;;;1.60;;
7969;SDS011;4030;52.362;9.206;2023-05-02T10:45:10;3.83;;;1.70;;
7969;SDS011;4030;52.362;9.206;2023-05-02T10:48:15;1.98;;;1.30;;
7969;SDS011;4030;52.362;9.206;2023-05-02T10:50:46;2.88;;;1.50;;
7969;SDS011;4030;52.362;9.206;2023-05-02T10:58:46;2.85;;;1.60;;
7969;SDS011;4030;52.362;9.206;2023-05-02T11:04:01;3.25;;;1.58;;
7969;SDS011;4030;52.362;9.206;2023-05-02T11:06:37;3.40;;;1.70;;
7969;SDS011;4030;52.362;9.206;2023-05-02T11:11:47;3.15;;;1.65;;
7969;SDS011;4030;52.362;9.206;2023-05-02T11:19:29;3.85;;;1.60;;
7969;SDS011;4030;52.362;9.206;2023-05-02T11:24:48;4.78;;;1.70;;
7969;SDS011;4030;52.362;9.206;2023-05-02T11:30:07;2.65;;;1.60;;
7969;SDS011;4030;52.362;9.206;2023-05-02T11:35:14;3.30;;;1.58;;
7969;SDS011;4030;52.362;9.206;2023-05-02T11:37:54;2.75;;;1.50;;
7969;SDS011;4030;52.362;9.206;2023-05-02T11:40:24;4.97;;;1.58;;
7969;SDS011;4030;52.362;9.206;2023-05-02T11:42:51;4.15;;;1.70;;
7969;SDS011;4030;52.362;9.206;2023-05-02T11:45:17;5.65;;;1.80;;
7969;SDS011;4030;52.362;9.206;2023-05-02T11:47:45;3.83;;;1.73;;
7969;SDS011;4030;52.362;9.206;2023-05-02T11:50:12;5.07;;;1.60;;
7969;SDS011;4030;52.362;9.206;2023-05-02T11:52:39;3.65;;;1.83;;
7969;SDS011;4030;52.362;9.206;2023-05-02T11:55:07;2.80;;;1.58;;
7969;SDS011;4030;52.362;9.206;2023-05-02T11:57:38;4.60;;;2.13;;
7969;SDS011;4030;52.362;9.206;2023-05-02T12:00:04;3.95;;;1.80;;
7969;SDS011;4030;52.362;9.206;2023-05-02T12:02:35;3.30;;;1.75;;
7969;SDS011;4030;52.362;9.206;2023-05-02T12:05:10;5.03;;;1.90;;
7969;SDS011;4030;52.362;9.206;2023-05-02T12:07:37;3.72;;;1.85;;
7969;SDS011;4030;52.362;9.206;2023-05-02T12:10:13;3.17;;;1.60;;
7969;SDS011;4030;52.362;9.206;2023-05-02T12:12:39;3.30;;;1.52;;
7969;SDS011;4030;52.362;9.206;2023-05-02T12:15:08;4.13;;;1.90;;
7969;SDS011;4030;52.362;9.206;2023-05-02T12:17:36;3.78;;;1.80;;
7969;SDS011;4030;52.362;9.206;2023-05-02T12:20:05;3.63;;;1.90;;
7969;SDS011;4030;52.362;9.206;2023-05-02T12:22:33;3.63;;;1.52;;
7969;SDS011;4030;52.362;9.206;2023-05-02T12:24:59;3.50;;;1.67;;
7969;SDS011;4030;52.362;9.206;2023-05-02T12:27:27;3.42;;;1.73;;
7969;SDS011;4030;52.362;9.206;2023-05-02T12:29:53;4.55;;;1.75;;
7969;SDS011;4030;52.362;9.206;2023-05-02T12:32:28;3.72;;;1.70;;
7969;SDS011;4030;52.362;9.206;2023-05-02T12:34:56;3.38;;;1.50;;
7969;SDS011;4030;52.362;9.206;2023-05-02T12:37:23;5.80;;;1.52;;
7969;SDS011;4030;52.362;9.206;2023-05-02T12:39:54;3.80;;;1.60;;
7969;SDS011;4030;52.362;9.206;2023-05-02T12:42:21;3.53;;;1.60;;
7969;SDS011;4030;52.362;9.206;2023-05-02T12:44:50;3.60;;;1.45;;
7969;SDS011;4030;52.362;9.206;2023-05-02T12:47:17;3.63;;;1.60;;
7969;SDS011;4030;52.362;9.206;2023-05-02T12:49:58;4.15;;;1.70;;
7969;SDS011;4030;52.362;9.206;2023-05-02T12:55:17;3.78;;;1.65;;
7969;SDS011;4030;52.362;9.206;2023-05-02T12:57:44;2.55;;;1.65;;
7969;SDS011;4030;52.362;9.206;2023-05-02T13:00:10;3.08;;;1.50;;
7969;SDS011;4030;52.362;9.206;2023-05-02T13:02:37;3.38;;;1.58;;
7969;SDS011;4030;52.362;9.206;2023-05-02T13:05:13;3.10;;;1.52;;
7969;SDS011;4030;52.362;9.206;2023-05-02T13:07:39;3.03;;;1.50;;
7969;SDS011;4030;52.362;9.206;2023-05-02T13:10:05;4.07;;;1.77;;
7969;SDS011;4030;52.362;9.206;2023-05-02T13:12:31;2.90;;;1.40;;
7969;SDS011;4030;52.362;9.206;2023-05-02T13:15:01;4.38;;;1.67;;
7969;SDS011;4030;52.362;9.206;2023-05-02T13:17:28;3.55;;;1.50;;
7969;SDS011;4030;52.362;9.206;2023-05-02T13:19:53;3.70;;;1.70;;
7969;SDS011;4030;52.362;9.206;2023-05-02T13:22:19;2.70;;;1.55;;
7969;SDS011;4030;52.362;9.206;2023-05-02T13:24:45;4.95;;;1.48;;
7969;SDS011;4030;52.362;9.206;2023-05-02T13:27:11;2.78;;;1.40;;
7969;SDS011;4030;52.362;9.206;2023-05-02T13:29:36;2.97;;;1.25;;
7969;SDS011;4030;52.362;9.206;2023-05-02T13:32:02;3.67;;;1.40;;
7969;SDS011;4030;52.362;9.206;2023-05-02T13:34:28;2.97;;;1.38;;
7969;SDS011;4030;52.362;9.206;2023-05-02T13:36:53;3.83;;;1.35;;
7969;SDS011;4030;52.362;9.206;2023-05-02T13:39:19;2.55;;;1.38;;
7969;SDS011;4030;52.362;9.206;2023-05-02T13:41:44;2.28;;;1.42;;
7969;SDS011;4030;52.362;9.206;2023-05-02T13:44:10;2.47;;;1.30;;
7969;SDS011;4030;52.362;9.206;2023-05-02T13:46:36;3.22;;;1.42;;
7969;SDS011;4030;52.362;9.206;2023-05-02T13:49:02;2.58;;;1.40;;
7969;SDS011;4030;52.362;9.206;2023-05-02T13:51:28;4.00;;;1.65;;
7969;SDS011;4030;52.362;9.206;2023-05-02T13:53:57;2.17;;;1.15;;
7969;SDS011;4030;52.362;9.206;2023-05-02T13:56:23;2.72;;;1.40;;
7969;SDS011;4030;52.362;9.206;2023-05-02T13:58:49;2.42;;;1.40;;
7969;SDS011;4030;52.362;9.206;2023-05-02T14:01:15;3.17;;;1.35;;
7969;SDS011;4030;52.362;9.206;2023-05-02T14:03:41;1.98;;;1.23;;
7969;SDS011;4030;52.362;9.206;2023-05-02T14:06:07;2.38;;;1.30;;
7969;SDS011;4030;52.362;9.206;2023-05-02T14:08:33;2.03;;;0.95;;
7969;SDS011;4030;52.362;9.206;2023-05-02T14:10:58;2.28;;;1.13;;
7969;SDS011;4030;52.362;9.206;2023-05-02T14:13:24;2.63;;;1.45;;
7969;SDS011;4030;52.362;9.206;2023-05-02T14:15:50;3.20;;;1.50;;
7969;SDS011;4030;52.362;9.206;2023-05-02T14:18:17;2.28;;;1.20;;
7969;SDS011;4030;52.362;9.206;2023-05-02T14:20:42;1.95;;;1.17;;
7969;SDS011;4030;52.362;9.206;2023-05-02T14:23:08;2.85;;;1.30;;
7969;SDS011;4030;52.362;9.206;2023-05-02T14:25:34;1.92;;;1.20;;
7969;SDS011;4030;52.362;9.206;2023-05-02T14:28:01;2.22;;;1.30;;
7969;SDS011;4030;52.362;9.206;2023-05-02T14:30:27;1.48;;;1.02;;
7969;SDS011;4030;52.362;9.206;2023-05-02T14:32:53;2.75;;;1.08;;
7969;SDS011;4030;52.362;9.206;2023-05-02T14:35:20;2.58;;;1.10;;
7969;SDS011;4030;52.362;9.206;2023-05-02T14:37:45;1.92;;;1.13;;
7969;SDS011;4030;52.362;9.206;2023-05-02T14:40:11;2.60;;;1.20;;
7969;SDS011;4030;52.362;9.206;2023-05-02T14:42:40;2.33;;;1.20;;
7969;SDS011;4030;52.362;9.206;2023-05-02T14:45:07;2.58;;;1.10;;
7969;SDS011;4030;52.362;9.206;2023-05-02T14:47:34;1.98;;;1.20;;
7969;SDS011;4030;52.362;9.206;2023-05-02T14:50:01;2.08;;;1.05;;
7969;SDS011;4030;52.362;9.206;2023-05-02T14:52:28;1.45;;;1.00;;
7969;SDS011;4030;52.362;9.206;2023-05-02T14:54:53;1.55;;;0.90;;
7969;SDS011;4030;52.362;9.206;2023-05-02T14:57:19;2.70;;;1.10;;
7969;SDS011;4030;52.362;9.206;2023-05-02T14:59:45;2.15;;;1.00;;
7969;SDS011;4030;52.362;9.206;2023-05-02T15:02:10;2.08;;;1.17;;
7969;SDS011;4030;52.362;9.206;2023-05-02T15:04:36;1.83;;;1.17;;
7969;SDS011;4030;52.362;9.206;2023-05-02T15:07:02;2.90;;;2.13;;
7969;SDS011;4030;52.362;9.206;2023-05-02T15:09:28;3.60;;;2.38;;
7969;SDS011;4030;52.362;9.206;2023-05-02T15:11:54;3.72;;;2.05;;
7969;SDS011;4030;52.362;9.206;2023-05-02T15:14:20;3.42;;;2.03;;
7969;SDS011;4030;52.362;9.206;2023-05-02T15:16:46;2.58;;;1.88;;
7969;SDS011;4030;52.362;9.206;2023-05-02T15:19:12;4.28;;;2.10;;
7969;SDS011;4030;52.362;9.206;2023-05-02T15:21:37;3.20;;;2.00;;
7969;SDS011;4030;52.362;9.206;2023-05-02T15:24:03;3.30;;;1.65;;
7969;SDS011;4030;52.362;9.206;2023-05-02T15:26:29;3.38;;;2.10;;
7969;SDS011;4030;52.362;9.206;2023-05-02T15:28:56;2.75;;;1.83;;
7969;SDS011;4030;52.362;9.206;2023-05-02T15:31:22;2.30;;;1.50;;
7969;SDS011;4030;52.362;9.206;2023-05-02T15:33:48;2.13;;;1.52;;
7969;SDS011;4030;52.362;9.206;2023-05-02T15:36:13;2.67;;;1.70;;
7969;SDS011;4030;52.362;9.206;2023-05-02T15:38:40;2.20;;;1.25;;
7969;SDS011;4030;52.362;9.206;2023-05-02T15:41:07;2.40;;;1.35;;
7969;SDS011;4030;52.362;9.206;2023-05-02T15:43:34;2.35;;;1.40;;
7969;SDS011;4030;52.362;9.206;2023-05-02T15:46:01;1.92;;;1.20;;
7969;SDS011;4030;52.362;9.206;2023-05-02T15:48:27;1.75;;;1.13;;
7969;SDS011;4030;52.362;9.206;2023-05-02T15:50:54;2.33;;;1.20;;
7969;SDS011;4030;52.362;9.206;2023-05-02T15:53:21;2.40;;;1.20;;
7969;SDS011;4030;52.362;9.206;2023-05-02T15:55:47;1.92;;;1.10;;
7969;SDS011;4030;52.362;9.206;2023-05-02T15:58:14;1.50;;;1.02;;
7969;SDS011;4030;52.362;9.206;2023-05-02T16:00:42;3.38;;;1.10;;
7969;SDS011;4030;52.362;9.206;2023-05-02T16:03:08;1.98;;;1.08;;
7969;SDS011;4030;52.362;9.206;2023-05-02T16:05:36;2.08;;;1.13;;
7969;SDS011;4030;52.362;9.206;2023-05-02T16:08:02;1.85;;;1.02;;
7969;SDS011;4030;52.362;9.206;2023-05-02T16:10:28;1.40;;;1.00;;